• Join FlightAware (Why Join?)
  • Login
  • US Flag 
12:19PM EDT


 

Airport Tracker/Info


-or-


 

Live Flight TrackerFlight Track Log ✈ UAL623 ✈ 02-May-2013 ✈ KONT - KIAH

Flight Track Log - Related Links

Times and Time Zones

All times are in EDT time to prevent confusion due to time zone crossing. See the UAL623 flight status page for this flight to view local times or setup timezone preferences in your user account.

Time Position Orientation Groundspeed Altitude Reporting Facility
EDT Latitude Longitude Course Direction KTS MPH feet Rate Location/Type
02:55PM 34.0397 -117.5578 99° East 187 215 2,800  Level Los Angeles Center
02:56PM 33.9864 -117.5489 172° South 247 284 4,200 2,640 Climbing Los Angeles Center
02:57PM 33.7544 -117.3981 145° Southeast  Level FlightAware Approximate
02:57PM 33.9000 -117.5150 162° South 267 307 8,300  Level Los Angeles Center
02:58PM 33.7167 -117.2760 90° East  Level FlightAware Approximate
02:58PM 33.8200 -117.4444 144° Southeast 292 336 11,100  Level Los Angeles Center
02:59PM 33.7000 -117.1396 90° East  Level FlightAware Approximate
02:59PM 33.7406 -117.3736 143° Southeast 345 397 13,300  Level Los Angeles Center
03:00PM 33.6972 -116.9941 99° East  Level FlightAware Approximate
03:00PM 33.7231 -117.2567 100° East 357 411 15,900  Level Los Angeles Center
03:01PM 33.7139 -117.1353 95° East 364 419 17,900 1,740 Climbing Los Angeles Center
03:02PM 33.7042 -117.0333 97° East 376 433 19,500 1,980 Climbing Los Angeles Center
03:04PM 33.6883 -116.8447 96° East 404 465 22,100 1,800 Climbing Los Angeles Center
03:05PM 33.6775 -116.7275 96° East 419 482 23,300 1,620 Climbing Los Angeles Center
03:06PM 33.6631 -116.5542 96° East 433 498 25,500 1,260 Climbing Los Angeles Center
03:07PM 33.6508 -116.4092 96° East 436 502 26,000 540 Climbing Los Angeles Center
03:08PM 33.6367 -116.2636 97° East 438 504 26,700 720 Climbing Los Angeles Center
03:09PM 33.6264 -116.1144 95° East 446 513 27,600 1,020 Climbing Los Angeles Center
03:10PM 33.6244 -115.9625 91° East 451 519 28,900 1,200 Climbing Los Angeles Center
03:11PM 33.6211 -115.8094 91° East 456 525 30,200 1,380 Climbing Los Angeles Center
03:12PM 33.6178 -115.6200 91° East 471 542 31,800 1,380 Climbing Los Angeles Center
03:13PM 33.6119 -115.4611 92° East 476 548 33,100 1,200 Climbing Los Angeles Center
03:14PM 33.6089 -115.3053 91° East 469 540 34,300 1,020 Climbing Los Angeles Center
03:15PM 33.6056 -115.1481 91° East 472 543 35,300 900 Climbing Los Angeles Center
03:16PM 33.6000 -114.9900 92° East 475 547 36,200 720 Climbing Los Angeles Center
03:17PM 33.5972 -114.8331 91° East 473 544 36,900 360 Climbing Los Angeles Center
03:18PM 33.5883 -114.6761 94° East 473 544 37,000  Climbing Los Angeles Center
03:19PM 33.5689 -114.4881 97° East 474 545 37,000  Level Los Angeles Center
03:20PM 33.5375 -114.3078 102° East 479 551 37,000  Level Albuquerque Center
03:21PM 33.5103 -114.1528 102° East 478 550 37,000 -60 Level Albuquerque Center
03:22PM 33.4811 -113.9978 103° East 478 550 36,900 -60 Descending Albuquerque Center
03:23PM 33.4478 -113.8106 102° East 479 551 36,900  Level Albuquerque Center
03:24PM 33.4194 -113.6558 102° East 477 549 36,900  Level Albuquerque Center
03:25PM 33.3908 -113.5003 102° East 478 550 36,900  Level Albuquerque Center
03:27PM 33.3619 -113.3456 103° East 476 548 36,900  Level Albuquerque Center
03:28PM 33.3325 -113.1911 103° East 476 548 37,000  Climbing Albuquerque Center
03:29PM 33.3031 -113.0353 103° East 478 550 37,000  Level Albuquerque Center
03:30PM 33.2731 -112.8781 103° East 482 555 37,000  Level Albuquerque Center
03:31PM 33.2431 -112.7222 103° East 481 554 37,000  Level Albuquerque Center
03:32PM 33.2064 -112.5347 103° East 480 552 37,000  Level Albuquerque Center
03:33PM 33.1739 -112.3675 103° East 482 555 37,000  Level Albuquerque Center
03:34PM 33.1439 -112.2131 103° East 482 555 37,000  Level Albuquerque Center
03:35PM 33.1128 -112.0589 104° East 482 555 37,000  Level Albuquerque Center
03:36PM 33.0797 -111.8931 103° East 481 554 37,000  Level Albuquerque Center
03:37PM 33.0494 -111.7386 103° East 481 554 37,000  Level Albuquerque Center
03:38PM 33.0153 -111.5725 104° East 481 554 37,000  Level Albuquerque Center
03:39PM 32.9847 -111.4167 103° East 484 557 37,000  Level Albuquerque Center
03:40PM 32.9508 -111.2500 104° East 482 555 37,000  Level Albuquerque Center
03:41PM 32.9181 -111.0964 104° East 482 555 37,000  Level Albuquerque Center
03:42PM 32.8872 -110.9453 104° East 483 556 37,000  Level Albuquerque Center
03:43PM 32.8550 -110.7906 104° East 485 558 37,000  Level Albuquerque Center
03:44PM 32.8225 -110.6372 104° East 483 556 37,000  Level Albuquerque Center
03:45PM 32.7903 -110.4847 104° East 483 556 37,000  Level Albuquerque Center
03:46PM 32.7508 -110.3011 104° East 483 556 37,000  Level Albuquerque Center
03:47PM 32.7178 -110.1469 104° East 484 557 37,000  Level Albuquerque Center
03:48PM 32.6831 -109.9933 105° East 487 560 37,000  Level Albuquerque Center
03:49PM 32.6472 -109.8392 105° East 489 563 37,000  Level Albuquerque Center
03:50PM 32.6144 -109.6867 104° East 487 560 37,000  Level Albuquerque Center
03:51PM 32.5744 -109.5022 104° East 488 562 37,000  Level Albuquerque Center
03:52PM 32.5419 -109.3506 104° East 485 558 37,000  Level Albuquerque Center
03:53PM 32.5072 -109.1967 105° East 488 562 37,000  Level Albuquerque Center
03:54PM 32.4722 -109.0433 105° East 489 563 37,000  Level Albuquerque Center
03:55PM 32.4311 -108.8611 105° East 486 559 37,000  Level Albuquerque Center
03:56PM 32.3969 -108.7089 105° East 486 559 37,000  Level Albuquerque Center
03:57PM 32.3617 -108.5553 105° East 488 562 37,000  Level Albuquerque Center
03:58PM 32.3236 -108.3886 105° East 492 566 37,000  Level Albuquerque Center
03:59PM 32.2858 -108.2333 106° East 493 567 37,000  Level Albuquerque Center
04:01PM 32.2508 -108.0775 105° East 492 566 37,000  Level Albuquerque Center
04:02PM 32.2139 -107.9233 106° East 493 567 37,000 -60 Level Albuquerque Center
04:03PM 32.1778 -107.7678 105° East 494 568 36,900 -60 Descending Albuquerque Center
04:04PM 32.1342 -107.5822 105° East 494 568 36,900  Level Albuquerque Center
04:05PM 32.0972 -107.4286 106° East 493 567 36,900  Level Albuquerque Center
04:06PM 32.0606 -107.2742 106° East 494 568 37,000  Climbing Albuquerque Center
04:07PM 32.0242 -107.1200 106° East 494 568 36,900  Descending Albuquerque Center
04:08PM 31.9864 -106.9656 106° East 494 568 37,000 240 Climbing Albuquerque Center
04:09PM 31.9411 -106.7814 106° East 493 567 37,500 600 Climbing Albuquerque Center
04:10PM 31.9011 -106.6239 107° East 503 579 38,300 660 Climbing Albuquerque Center
04:11PM 31.8611 -106.4581 106° East 504 580 38,900 300 Climbing Albuquerque Center
04:12PM 31.8228 -106.2994 106° East 505 581 39,000  Climbing Albuquerque Center
04:13PM 31.7819 -106.1436 107° East 502 578 39,000  Level Albuquerque Center
04:14PM 31.7422 -105.9872 107° East 501 577 39,000  Level Albuquerque Center
04:15PM 31.7025 -105.8303 107° East 501 577 39,000  Level Albuquerque Center
04:16PM 31.6553 -105.6403 106° East 504 580 39,000 -60 Level Albuquerque Center
04:17PM 31.6161 -105.4831 106° East 503 579 38,900 -60 Descending Albuquerque Center
04:18PM 31.5758 -105.3258 107° East 501 577 38,900  Level Albuquerque Center
04:19PM 31.5361 -105.1711 107° East 496 571 38,900  Level Albuquerque Center
04:20PM 31.4967 -105.0125 106° East 502 578 38,900  Level Albuquerque Center
04:21PM 31.4561 -104.8556 107° East 502 578 38,900  Level Albuquerque Center
04:22PM 31.4153 -104.6983 107° East 501 577 39,000  Climbing Albuquerque Center
04:23PM 31.3747 -104.5408 107° East 502 578 39,000  Level Albuquerque Center
04:24PM 31.3256 -104.3531 107° East 500 575 39,000  Level Albuquerque Center
04:25PM 31.2844 -104.1967 107° East 502 578 39,000  Level Albuquerque Center
04:26PM 31.2428 -104.0414 107° East 501 577 39,000 -60 Level Albuquerque Center
04:27PM 31.2017 -103.8856 107° East 501 577 38,900 -60 Descending Albuquerque Center
04:28PM 31.1536 -103.7122 108° East 498 573 38,900  Level Albuquerque Center
04:29PM 31.1100 -103.5583 108° East 500 575 39,000  Climbing Albuquerque Center
04:30PM 31.0669 -103.4042 108° East 501 577 38,900  Descending Albuquerque Center
04:31PM 31.0256 -103.2511 107° East 499 574 39,000  Climbing Albuquerque Center
04:32PM 30.9850 -103.0989 107° East 495 570 39,000  Level Albuquerque Center
04:34PM 30.9428 -102.9467 108° East 495 570 39,000 -60 Level Albuquerque Center
04:35PM 30.8961 -102.7628 106° East 497 572 38,900 -60 Descending Albuquerque Center
04:36PM 30.8558 -102.6103 107° East 498 573 38,900  Level Albuquerque Center
04:37PM 30.8164 -102.4583 107° East 497 572 38,900  Level Albuquerque Center
04:38PM 30.7775 -102.3061 107° East 497 572 39,000  Climbing Albuquerque Center
04:39PM 30.7369 -102.1542 107° East 497 572 39,000 -60 Level Albuquerque Center
04:41PM 30.6683 -101.8992 107° East  Level FlightAware Approximate
04:44PM 30.5325 -101.3831 108° East 488 562 38,900  Level Houston Center
04:45PM 30.4831 -101.2025 108° East 490 564 39,000  Climbing Houston Center
04:46PM 30.4428 -101.0517 108° East 490 564 39,000 -60 Level Houston Center
04:47PM 30.4196 -100.9713 108° East  Level FlightAware Approximate
04:47PM 30.4000 -100.9031 108° East 489 563 38,900  Level Houston Center
04:48PM 30.4009 -100.9193 107° East  Level FlightAware Approximate
04:48PM 30.3592 -100.7550 108° East 483 556 39,000  Level Houston Center
04:49PM 30.3626 -100.7796 108° East  Level FlightAware Approximate
04:49PM 30.3186 -100.6061 107° East 485 558 38,900  Level Houston Center
04:50PM 30.2783 -100.4578 107° East 482 555 38,900  Level Houston Center
04:51PM 30.2367 -100.3083 108° East 482 555 39,000  Climbing Houston Center
04:52PM 30.1944 -100.1561 108° East 485 558 39,000  Level Houston Center
04:53PM 30.1425 -99.9781 109° East 481 554 39,000 -60 Level Houston Center
04:54PM 30.1485 -100.0038 108° East  Level FlightAware Approximate
04:54PM 30.1019 -99.8325 108° East 474 545 38,900  Level Houston Center
04:55PM 30.0592 -99.6886 109° East 473 544 38,900  Level Houston Center
04:56PM 30.0178 -99.5444 108° East 474 545 38,900  Level Houston Center
04:57PM 29.9775 -99.3992 108° East 476 548 38,900  Level Houston Center
04:58PM 29.9364 -99.2539 108° East 477 549 39,000  Climbing Houston Center
04:59PM 29.8869 -99.1114 112° Southeast 479 551 39,000  Level Houston Center
05:00PM 29.8225 -98.9428 114° Southeast 477 549 39,000  Level Houston Center
05:01PM 29.7672 -98.7911 113° Southeast 477 549 39,000 -120 Level Houston Center
05:02PM 29.7150 -98.6511 113° Southeast 475 547 38,800 -540 Descending Houston Center
05:03PM 29.6683 -98.5094 111° Southeast 474 545 37,900 -900 Descending Houston Center
05:04PM 29.6478 -98.3394 98° East 492 566 37,000 -480 Descending Houston Center
05:06PM 29.6486 -98.1847 90° East 485 558 37,000 -240 Level Houston Center
05:07PM 29.6492 -98.0292 90° East 486 559 36,600 -720 Descending Houston Center
05:08PM 29.6392 -97.8650 94° East 478 550 35,500 -1,020 Descending Houston Center
05:09PM 29.6328 -97.7208 93° East 474 545 34,500 -1,020 Descending Houston Center
05:10PM 29.6256 -97.5750 93° East 462 532 33,500 -1,860 Descending Houston Center
05:11PM 29.6183 -97.4317 93° East 452 520 30,700 -2,460 Descending Houston Center
05:12PM 29.6100 -97.2856 94° East 457 526 28,500 -2,220 Descending Houston Center
05:13PM 29.6028 -97.1422 93° East 451 519 26,200 -2,280 Descending Houston Center
05:14PM 29.5942 -96.9781 93° East 430 495 23,900 -2,220 Descending Houston Center
05:15PM 29.5856 -96.8444 94° East 417 480 21,700 -2,160 Descending Houston Center
05:16PM 29.5783 -96.7136 94° East 408 470 19,500 -1,920 Descending Houston Center
05:17PM 29.5714 -96.5867 94° East 401 461 17,800 -1,680 Descending Houston Center
05:17PM 29.5675 -96.5506 97° East 378 435 17,400 -2,040 Descending Houston Center
05:17PM 29.5664 -96.5122 92° East 375 432 16,700 -2,100 Descending Houston Center
05:18PM 29.5642 -96.4653 93° East 387 445 15,800 -2,040 Descending Houston Center
05:18PM 29.5586 -96.3933 95° East 381 438 14,600 -1,860 Descending Houston Center
05:19PM 29.5561 -96.3458 93° East 378 435 13,900 -1,680 Descending Houston Center
05:20PM 29.5500 -96.2694 95° East 366 421 12,900 -1,680 Descending Houston Center
05:20PM 29.5486 -96.2328 92° East 361 415 12,200 -900 Descending Houston Center
05:21PM 29.5511 -96.1589 88° East 348 400 12,000 -300 Descending Houston Center
05:21PM 29.5656 -96.1269 63° Northeast 346 398 11,900  Descending Houston Center
05:22PM 29.6031 -96.0544 59° Northeast 343 395 12,000  Climbing Houston Center
05:22PM 29.6222 -96.0133 62° Northeast 343 395 11,900  Descending Houston Center
05:23PM 29.6458 -95.9681 59° Northeast 341 392 12,000  Climbing Houston Center
05:23PM 29.6703 -95.9203 60° Northeast 342 394 11,900 -600 Descending Houston Center
05:24PM 29.6944 -95.8736 59° Northeast 343 395 11,400 -1,260 Descending Houston Center
05:24PM 29.7172 -95.8261 61° Northeast 340 391 10,600 -1,380 Descending Houston Center
05:25PM 29.7458 -95.7667 61° Northeast 330 380 9,900 -720 Descending Houston Center
05:25PM 29.7631 -95.7350 58° Northeast 333 383 9,900  Level Houston Center
05:26PM 29.7867 -95.6847 62° Northeast 319 367 9,900 -120 Level Houston Center
05:26PM 29.8058 -95.6483 59° Northeast 317 365 9,800 -1,020 Descending Houston Center
05:27PM 29.8314 -95.5978 60° Northeast 288 331 8,800 -1,500 Descending Houston Center
05:27PM 29.8453 -95.5694 61° Northeast 291 335 8,300 -1,380 Descending Houston Center
05:28PM 29.8722 -95.5133 61° Northeast 276 318 7,400 -1,680 Descending Houston Center
05:28PM 29.8919 -95.4778 57° Northeast 275 316 6,600 -1,380 Descending Houston Center
05:29PM 29.8942 -95.4311 87° East 279 321 6,000 -780 Descending Houston Center
05:29PM 29.8961 -95.3900 87° East 276 318 5,800 -120 Descending Houston Center
05:30PM 29.8953 -95.3517 91° East 274 315 5,900  Climbing Houston Center
05:30PM 29.8969 -95.3039 88° East 269 310 5,800  Descending Houston Center
05:31PM 29.8972 -95.2597 90° East 266 306 5,900  Climbing Houston Center
05:31PM 29.8969 -95.2172 90° East 268 308 5,800  Descending Houston Center
05:32PM 29.8972 -95.1681 90° East 269 310 5,900  Climbing Houston Center
05:32PM 29.8975 -95.1314 89° East 266 306 5,800 -240 Descending Houston Center
05:33PM 29.8964 -95.0911 92° East 216 249 5,700 -720 Descending Houston Center
05:33PM 29.9033 -95.0608 75° East 233 268 5,100 -1,200 Descending Houston Center
05:34PM 29.9347 -95.0528 13° North 215 247 4,500 -1,020 Descending Houston Center
05:34PM 29.9597 -95.0500 North 208 239 4,100 -600 Descending Houston Center
05:35PM 29.9842 -95.0658 331° Northwest 188 216 3,900 -720 Descending Houston Center
05:36PM 29.9925 -95.1008 285° West 195 224 3,400 -840 Descending Houston Center
05:36PM 29.9922 -95.1275 269° West 191 220 3,100 -600 Descending Houston Center
05:37PM 29.9944 -95.1594 275° West 189 217 2,800 -480 Descending Houston Center